Time;durP1;ratioP1;P1;durP2;ratioP2;P2;SDS_P1;SDS_P2;PMS_P1;PMS_P2;Temp;Humidity;BMP_temperature;BMP_pressure;BME280_temperature;BME280_humidity;BME280_pressure;Samples;Min_cycle;Max_cycle;Signal;HPM_P1;HPM_P2
2021/07/01 00:00:47;;;;;;;15.25;6.70;;;17.50;99.90;;;;;;5014200;28;20026;-79
2021/07/01 00:03:13;;;;;;;10.10;6.85;;;17.30;99.90;;;;;;4994750;28;20057;-79
2021/07/01 00:05:39;;;;;;;10.35;6.25;;;17.30;99.90;;;;;;5001088;28;20033;-79
2021/07/01 00:08:05;;;;;;;10.30;7.32;;;17.40;99.90;;;;;;5002525;28;20029;-79
2021/07/01 00:10:31;;;;;;;8.90;7.00;;;17.40;99.90;;;;;;4995380;28;20026;-79
2021/07/01 00:12:57;;;;;;;10.18;7.45;;;17.30;99.90;;;;;;4993498;28;20038;-79
2021/07/01 00:15:25;;;;;;;14.18;6.80;;;17.40;99.90;;;;;;4993382;28;20483;-78
2021/07/01 00:17:52;;;;;;;10.40;6.65;;;17.30;99.90;;;;;;4994764;28;20030;-78
2021/07/01 00:20:20;;;;;;;11.07;6.88;;;17.30;99.90;;;;;;5000455;28;20032;-78
2021/07/01 00:22:46;;;;;;;12.32;7.15;;;17.40;99.90;;;;;;4995532;28;20092;-78
2021/07/01 00:25:13;;;;;;;11.88;7.13;;;17.20;99.90;;;;;;4993048;28;20574;-78
2021/07/01 00:27:39;;;;;;;12.35;6.85;;;17.30;99.90;;;;;;4993574;28;20104;-79
2021/07/01 00:30:06;;;;;;;11.15;7.03;;;17.30;99.90;;;;;;4993403;28;20029;-79
2021/07/01 00:32:32;;;;;;;11.18;6.85;;;17.30;99.90;;;;;;5013936;28;20478;-78
2021/07/01 00:34:57;;;;;;;9.15;6.60;;;17.30;99.90;;;;;;5007020;28;20040;-78
2021/07/01 00:37:23;;;;;;;11.40;6.90;;;17.30;99.90;;;;;;5001181;28;20025;-79
2021/07/01 00:39:49;;;;;;;11.02;7.85;;;17.30;99.90;;;;;;4994537;28;20026;-78
2021/07/01 00:42:14;;;;;;;13.80;8.75;;;17.30;99.90;;;;;;5001344;28;20034;-78
2021/07/01 00:44:40;;;;;;;11.48;8.65;;;17.20;99.90;;;;;;4993936;28;20113;-79
2021/07/01 00:47:06;;;;;;;12.45;9.15;;;17.30;99.90;;;;;;5009432;28;20022;-78
2021/07/01 00:49:31;;;;;;;11.90;9.20;;;17.30;99.90;;;;;;4993544;28;20018;-79
2021/07/01 00:51:57;;;;;;;12.57;9.32;;;17.30;99.90;;;;;;4992579;28;20117;-78
2021/07/01 00:54:22;;;;;;;16.00;9.70;;;17.40;99.90;;;;;;4994444;28;20093;-79
2021/07/01 00:56:49;;;;;;;13.15;9.00;;;17.20;99.90;;;;;;4993021;28;20076;-79
2021/07/01 00:59:15;;;;;;;11.00;8.30;;;17.30;99.90;;;;;;5008502;28;20037;-79
2021/07/01 01:01:41;;;;;;;15.02;7.30;;;17.20;99.90;;;;;;5013363;28;20029;-78
2021/07/01 01:04:07;;;;;;;10.50;6.40;;;17.30;99.90;;;;;;5010760;28;20034;-79
2021/07/01 01:06:33;;;;;;;8.40;6.78;;;17.10;99.90;;;;;;5006736;28;20102;-78
2021/07/01 01:09:00;;;;;;;8.40;5.50;;;17.10;99.90;;;;;;4993391;28;20022;-78
2021/07/01 01:11:27;;;;;;;6.68;4.80;;;17.10;99.90;;;;;;5000275;28;20026;-79
2021/07/01 01:13:54;;;;;;;10.73;4.75;;;17.00;99.90;;;;;;5011735;28;20045;-79
2021/07/01 01:16:20;;;;;;;6.18;5.07;;;17.00;99.90;;;;;;5028657;28;20025;-79
2021/07/01 01:18:47;;;;;;;7.75;5.10;;;16.90;99.90;;;;;;4996980;28;20449;-78
2021/07/01 01:21:14;;;;;;;11.70;5.38;;;16.90;99.90;;;;;;4993542;28;20038;-79
2021/07/01 01:23:40;;;;;;;8.40;5.28;;;16.90;99.90;;;;;;5004154;28;20041;-79
2021/07/01 01:26:06;;;;;;;5.30;4.80;;;16.90;99.90;;;;;;5028524;28;20049;-79
2021/07/01 01:28:32;;;;;;;6.82;4.80;;;16.80;99.90;;;;;;5003038;28;20127;-78
2021/07/01 01:30:58;;;;;;;8.95;5.60;;;16.80;99.90;;;;;;4994148;28;20134;-79
2021/07/01 01:33:27;;;;;;;7.07;6.03;;;16.90;99.90;;;;;;4992924;28;20030;-79
2021/07/01 01:35:52;;;;;;;6.03;5.32;;;16.90;99.90;;;;;;4993513;28;20034;-79
2021/07/01 01:38:18;;;;;;;9.50;5.38;;;16.70;99.90;;;;;;4996634;28;20031;-79
2021/07/01 01:40:47;;;;;;;6.18;4.95;;;16.60;99.90;;;;;;5010550;28;20037;-79
2021/07/01 01:43:14;;;;;;;6.45;5.55;;;16.60;99.90;;;;;;5008109;28;20032;-79
2021/07/01 01:45:41;;;;;;;9.00;4.97;;;16.60;99.90;;;;;;5015972;28;20022;-80
2021/07/01 01:48:07;;;;;;;13.00;6.05;;;16.60;99.90;;;;;;5012860;28;20106;-80
2021/07/01 01:50:33;;;;;;;12.23;6.13;;;16.50;99.90;;;;;;4999754;28;20104;-79
2021/07/01 01:52:59;;;;;;;10.27;7.38;;;16.50;99.90;;;;;;5012447;28;20025;-79
2021/07/01 01:55:25;;;;;;;18.08;7.25;;;16.50;99.90;;;;;;5011826;28;20033;-79
2021/07/01 01:57:52;;;;;;;12.55;7.72;;;16.50;99.90;;;;;;5015501;28;20035;-79
2021/07/01 02:00:20;;;;;;;11.18;7.43;;;16.60;99.90;;;;;;4991036;28;20034;-79
2021/07/01 02:02:46;;;;;;;13.10;8.48;;;16.60;99.90;;;;;;4993540;28;20092;-79
2021/07/01 02:05:13;;;;;;;14.95;8.18;;;16.60;99.90;;;;;;5010488;28;20026;-79
2021/07/01 02:07:39;;;;;;;11.05;6.68;;;16.70;99.90;;;;;;5008051;28;20027;-79
2021/07/01 02:10:11;;;;;;;13.25;7.15;;;16.70;99.90;;;;;;4991484;28;20030;-79
2021/07/01 02:12:37;;;;;;;9.90;7.38;;;16.70;99.90;;;;;;5001003;28;20376;-79
2021/07/01 02:15:05;;;;;;;9.27;6.60;;;16.70;99.90;;;;;;4992441;28;20073;-79
2021/07/01 02:17:34;;;;;;;12.18;7.43;;;16.70;99.90;;;;;;4992708;28;20494;-79
2021/07/01 02:20:00;;;;;;;19.08;8.25;;;16.80;99.90;;;;;;4992414;28;20088;-79
2021/07/01 02:22:25;;;;;;;17.38;7.40;;;16.70;99.90;;;;;;5007238;28;20041;-79
2021/07/01 02:24:51;;;;;;;17.20;8.40;;;16.70;99.90;;;;;;4995179;28;20027;-79
2021/07/01 02:27:16;;;;;;;18.77;8.77;;;16.80;99.90;;;;;;4992692;28;20022;-79
2021/07/01 02:29:42;;;;;;;16.80;10.98;;;16.80;99.90;;;;;;4990841;28;20087;-79
2021/07/01 02:32:08;;;;;;;15.48;10.40;;;16.80;99.90;;;;;;5007423;28;20021;-79
2021/07/01 02:34:39;;;;;;;17.05;11.20;;;16.80;99.90;;;;;;4992872;28;20034;-79
2021/07/01 02:37:06;;;;;;;18.80;11.85;;;16.90;99.90;;;;;;5006466;28;20033;-79
2021/07/01 02:39:32;;;;;;;27.50;13.57;;;16.90;99.90;;;;;;5012171;28;20385;-79
2021/07/01 02:41:57;;;;;;;18.23;12.57;;;17.00;99.90;;;;;;5002943;28;20101;-79
2021/07/01 02:44:23;;;;;;;31.42;14.57;;;17.00;99.90;;;;;;5007031;28;20541;-79
2021/07/01 02:46:48;;;;;;;31.15;15.88;;;17.00;99.90;;;;;;4991132;28;20018;-79
2021/07/01 02:49:14;;;;;;;21.63;13.75;;;17.10;99.90;;;;;;5001432;28;20034;-79
2021/07/01 02:51:39;;;;;;;24.10;13.77;;;17.10;99.90;;;;;;5000663;28;20502;-79
2021/07/01 02:54:05;;;;;;;25.23;13.55;;;17.00;99.90;;;;;;4998641;28;20545;-79
2021/07/01 02:56:40;;;;;;;28.90;13.85;;;17.10;99.90;;;;;;5002064;28;20042;-79
2021/07/01 02:59:09;;;;;;;24.15;13.77;;;17.20;99.90;;;;;;4992647;28;20026;-79
2021/07/01 03:01:35;;;;;;;23.67;14.10;;;17.20;99.90;;;;;;4991698;28;20577;-79
2021/07/01 03:04:01;;;;;;;35.30;14.00;;;17.20;99.90;;;;;;4990289;28;20030;-79
2021/07/01 03:06:26;;;;;;;23.17;14.65;;;17.30;99.90;;;;;;4990897;28;20483;-79
2021/07/01 03:08:54;;;;;;;26.02;13.30;;;17.30;99.90;;;;;;4995725;28;20033;-80
2021/07/01 03:11:20;;;;;;;21.63;14.02;;;17.30;99.90;;;;;;5004078;28;20101;-79
2021/07/01 03:13:46;;;;;;;25.17;15.00;;;17.30;99.90;;;;;;5001261;28;20122;-79
2021/07/01 03:16:19;;;;;;;24.88;14.70;;;17.30;99.90;;;;;;4994869;28;20072;-79
2021/07/01 03:18:44;;;;;;;26.33;14.82;;;17.40;99.90;;;;;;4995803;28;20451;-79
2021/07/01 03:21:10;;;;;;;25.00;15.05;;;17.40;99.90;;;;;;4994162;28;20082;-79
2021/07/01 03:23:36;;;;;;;27.98;15.35;;;17.30;99.90;;;;;;4996571;28;20034;-79
2021/07/01 03:26:02;;;;;;;26.80;15.38;;;17.30;99.90;;;;;;4996438;28;20486;-79
2021/07/01 03:28:27;;;;;;;20.83;15.38;;;17.30;99.90;;;;;;4995952;28;20031;-79
2021/07/01 03:30:53;;;;;;;23.80;13.88;;;17.30;99.90;;;;;;4995622;28;20038;-80
2021/07/01 03:33:19;;;;;;;31.63;15.60;;;17.40;99.90;;;;;;5002161;28;20109;-79
2021/07/01 03:35:44;;;;;;;27.30;14.90;;;17.40;99.90;;;;;;4994886;28;20058;-79
2021/07/01 03:38:10;;;;;;;31.52;14.82;;;17.40;99.90;;;;;;4994517;28;20019;-79
2021/07/01 03:40:35;;;;;;;26.00;15.52;;;17.30;99.90;;;;;;4995530;28;20126;-79
2021/07/01 03:43:02;;;;;;;23.08;14.52;;;17.30;99.90;;;;;;4994992;28;20030;-79
2021/07/01 03:45:27;;;;;;;23.02;14.80;;;17.30;99.90;;;;;;4995814;28;20018;-79
2021/07/01 03:47:53;;;;;;;27.80;14.32;;;17.30;99.90;;;;;;4998363;28;20068;-79
2021/07/01 03:50:19;;;;;;;26.05;14.70;;;17.30;99.90;;;;;;4995447;28;20097;-79
2021/07/01 03:52:45;;;;;;;22.45;13.05;;;17.20;99.90;;;;;;4995360;28;20034;-79
2021/07/01 03:55:11;;;;;;;27.02;13.93;;;17.20;99.90;;;;;;4994207;28;20557;-78
2021/07/01 03:57:37;;;;;;;24.17;13.95;;;17.20;99.90;;;;;;4994683;28;20030;-79
2021/07/01 04:00:05;;;;;;;19.75;13.63;;;17.20;99.90;;;;;;5010385;28;20077;-79
2021/07/01 04:02:31;;;;;;;24.10;14.02;;;17.20;99.90;;;;;;5008864;28;20409;-79
2021/07/01 04:04:57;;;;;;;22.63;14.07;;;17.20;99.90;;;;;;5011764;28;20027;-78
2021/07/01 04:07:22;;;;;;;26.80;14.35;;;17.20;99.90;;;;;;5005666;28;20026;-79
2021/07/01 04:09:48;;;;;;;23.17;14.05;;;17.20;99.90;;;;;;5014733;28;20066;-79
2021/07/01 04:12:13;;;;;;;38.00;13.60;;;17.20;99.90;;;;;;4999420;28;20023;-79
2021/07/01 04:14:39;;;;;;;16.13;12.15;;;17.20;99.90;;;;;;4993654;28;20038;-79
2021/07/01 04:17:05;;;;;;;22.25;12.88;;;17.20;99.90;;;;;;4994998;28;20030;-79
2021/07/01 04:19:31;;;;;;;24.95;13.88;;;17.20;99.90;;;;;;5010119;28;20713;-79
2021/07/01 04:21:56;;;;;;;26.00;13.98;;;17.20;99.90;;;;;;4994418;28;20042;-79
2021/07/01 04:24:22;;;;;;;23.83;13.48;;;17.20;99.90;;;;;;5007406;28;20076;-79
2021/07/01 04:26:48;;;;;;;21.00;13.43;;;17.30;99.90;;;;;;5007289;28;20038;-79
2021/07/01 04:29:13;;;;;;;25.85;13.98;;;17.30;99.90;;;;;;4998772;28;20049;-79
2021/07/01 04:31:39;;;;;;;24.35;14.23;;;17.30;99.90;;;;;;5009777;28;20032;-79
2021/07/01 04:34:06;;;;;;;33.95;15.52;;;17.30;99.90;;;;;;4999584;28;20112;-79
2021/07/01 04:36:32;;;;;;;25.13;14.27;;;17.30;99.90;;;;;;5014286;28;20028;-79
2021/07/01 04:38:57;;;;;;;25.17;14.10;;;17.30;99.90;;;;;;5020634;28;20095;-80
2021/07/01 04:41:23;;;;;;;19.95;13.23;;;17.40;99.90;;;;;;4997668;28;20061;-79
2021/07/01 04:43:49;;;;;;;21.40;15.00;;;17.40;99.90;;;;;;4997669;28;20504;-80
2021/07/01 04:46:14;;;;;;;24.42;14.32;;;17.40;99.90;;;;;;4994510;28;20530;-80
2021/07/01 04:48:44;;;;;;;21.83;14.20;;;17.50;99.90;;;;;;4992794;28;20043;-79
2021/07/01 04:51:10;;;;;;;21.15;15.35;;;17.60;99.90;;;;;;4993987;28;20018;-80
2021/07/01 04:53:35;;;;;;;29.30;15.70;;;17.60;99.90;;;;;;4994218;28;20035;-79
2021/07/01 04:56:01;;;;;;;22.70;14.95;;;17.50;99.90;;;;;;4993963;28;20042;-80
2021/07/01 04:58:26;;;;;;;44.45;17.52;;;17.60;99.90;;;;;;4994418;28;20038;-80
2021/07/01 05:00:52;;;;;;;29.95;16.50;;;17.60;99.90;;;;;;4994246;28;20085;-80
2021/07/01 05:03:17;;;;;;;35.65;16.90;;;17.60;99.90;;;;;;4993800;28;20113;-81
2021/07/01 05:05:43;;;;;;;34.92;16.63;;;17.50;99.90;;;;;;4993836;28;20019;-80
2021/07/01 05:08:08;;;;;;;30.63;16.50;;;17.50;99.90;;;;;;5009205;28;20045;-81
2021/07/01 05:10:34;;;;;;;27.25;16.17;;;17.50;99.90;;;;;;4994281;28;20105;-81
2021/07/01 05:13:00;;;;;;;37.17;16.58;;;17.50;99.90;;;;;;5001462;28;20034;-81
2021/07/01 05:15:25;;;;;;;38.72;18.10;;;17.60;99.90;;;;;;4993653;28;20026;-81
2021/07/01 05:17:51;;;;;;;28.17;15.85;;;17.50;99.90;;;;;;5011407;28;20030;-81
2021/07/01 05:20:17;;;;;;;38.13;17.63;;;17.50;99.90;;;;;;5012307;28;20387;-81
2021/07/01 05:22:42;;;;;;;25.48;16.98;;;17.60;99.90;;;;;;4997554;28;20038;-81
2021/07/01 05:25:09;;;;;;;42.15;18.02;;;17.60;99.90;;;;;;5013233;28;20059;-81
2021/07/01 05:27:34;;;;;;;38.78;17.15;;;17.50;99.90;;;;;;5011180;28;20030;-79
2021/07/01 05:30:00;;;;;;;29.25;16.33;;;17.60;99.90;;;;;;4993607;28;20368;-80
2021/07/01 05:32:26;;;;;;;26.75;16.20;;;17.50;99.90;;;;;;4993265;28;20034;-80
2021/07/01 05:34:51;;;;;;;27.50;16.95;;;17.40;99.90;;;;;;5009643;28;20030;-79
2021/07/01 05:37:17;;;;;;;25.75;16.08;;;17.50;99.90;;;;;;5013077;28;20033;-79
2021/07/01 05:39:43;;;;;;;24.30;15.35;;;17.50;99.90;;;;;;5007640;28;20033;-80
2021/07/01 05:42:09;;;;;;;29.27;17.52;;;17.60;99.90;;;;;;4998570;28;20057;-79
2021/07/01 05:44:34;;;;;;;24.27;16.38;;;17.70;99.90;;;;;;4992435;28;20118;-80
2021/07/01 05:47:00;;;;;;;29.30;17.58;;;17.80;99.90;;;;;;4993004;28;20031;-79
2021/07/01 05:49:26;;;;;;;34.45;16.45;;;17.80;99.90;;;;;;4993355;28;20027;-79
2021/07/01 05:51:56;;;;;;;24.73;15.27;;;17.80;99.90;;;;;;5004701;28;20030;-80
2021/07/01 05:54:33;;;;;;;27.48;15.35;;;17.90;99.90;;;;;;4994298;28;20056;-79
2021/07/01 05:56:59;;;;;;;22.88;15.18;;;17.90;99.90;;;;;;4992407;28;20036;-79
2021/07/01 05:59:24;;;;;;;24.00;14.90;;;18.10;99.90;;;;;;4991556;28;20120;-80
2021/07/01 06:01:51;;;;;;;20.80;13.95;;;18.10;99.90;;;;;;5000271;28;20101;-78
2021/07/01 06:04:20;;;;;;;22.83;15.20;;;18.10;99.90;;;;;;5009901;28;20026;-80
2021/07/01 06:06:50;;;;;;;27.98;14.27;;;18.20;99.90;;;;;;5018357;28;20078;-80
2021/07/01 06:09:19;;;;;;;26.83;14.80;;;18.10;99.90;;;;;;5012473;28;20018;-80
2021/07/01 06:11:45;;;;;;;30.67;15.18;;;18.10;99.90;;;;;;5001362;28;20101;-79
2021/07/01 06:14:11;;;;;;;28.58;16.45;;;18.20;99.90;;;;;;4994015;28;20034;-80
2021/07/01 06:16:39;;;;;;;34.67;15.77;;;18.30;99.90;;;;;;4992739;28;20037;-79
2021/07/01 06:19:04;;;;;;;21.45;15.05;;;18.50;99.90;;;;;;4992204;28;20027;-79
2021/07/01 06:21:31;;;;;;;23.38;13.98;;;18.50;99.90;;;;;;4990773;28;20034;-78
2021/07/01 06:23:57;;;;;;;26.83;13.95;;;18.60;99.90;;;;;;4990776;28;20030;-78
2021/07/01 06:26:28;;;;;;;22.02;14.05;;;18.70;99.90;;;;;;5020757;28;20036;-79
2021/07/01 06:28:55;;;;;;;27.15;13.48;;;18.80;99.90;;;;;;5005423;28;20029;-78
2021/07/01 06:31:20;;;;;;;28.02;13.85;;;19.00;99.90;;;;;;4992252;28;20022;-78
2021/07/01 06:33:47;;;;;;;19.67;13.27;;;18.90;99.90;;;;;;4995371;28;20505;-79
2021/07/01 06:36:13;;;;;;;20.60;12.70;;;18.90;99.90;;;;;;5004336;28;20053;-80
2021/07/01 06:38:46;;;;;;;27.25;14.35;;;18.90;99.90;;;;;;5012147;28;20109;-79
2021/07/01 06:41:14;;;;;;;17.17;12.57;;;18.80;99.90;;;;;;4996098;28;20026;-79
2021/07/01 06:43:41;;;;;;;18.08;12.43;;;18.90;99.90;;;;;;4991754;28;20030;-79
2021/07/01 06:46:07;;;;;;;25.55;12.85;;;19.10;99.90;;;;;;4992267;28;20036;-79
2021/07/01 06:48:33;;;;;;;27.38;12.85;;;19.40;99.90;;;;;;4993086;28;20027;-79
2021/07/01 06:51:00;;;;;;;20.02;12.23;;;19.70;99.90;;;;;;5009665;28;20089;-80
2021/07/01 06:53:27;;;;;;;26.70;13.30;;;19.90;99.90;;;;;;5026888;28;20026;-80
2021/07/01 06:55:53;;;;;;;23.85;13.75;;;19.90;99.90;;;;;;5010583;28;20018;-80
2021/07/01 06:58:20;;;;;;;31.95;12.90;;;19.70;99.90;;;;;;5010663;28;20026;-81
2021/07/01 07:00:47;;;;;;;29.70;12.73;;;19.50;99.90;;;;;;4997125;28;20479;-79
2021/07/01 07:03:18;;;;;;;21.65;13.63;;;19.50;99.90;;;;;;4991429;28;20030;-80
2021/07/01 07:05:51;;;;;;;25.50;13.13;;;19.40;99.90;;;;;;4990910;28;20022;-80
2021/07/01 07:08:18;;;;;;;20.13;13.27;;;19.70;99.90;;;;;;4991811;28;20026;-78
2021/07/01 07:10:45;;;;;;;24.98;12.27;;;19.80;99.90;;;;;;5007111;28;20077;-78
2021/07/01 07:13:11;;;;;;;21.38;11.55;;;20.00;99.90;;;;;;4990952;28;20034;-78
2021/07/01 07:15:37;;;;;;;22.48;11.38;;;20.00;99.90;;;;;;4992133;28;20450;-78
2021/07/01 07:18:18;;;;;;;31.95;12.70;;;20.20;99.90;;;;;;4992724;28;20105;-79
2021/07/01 07:20:46;;;;;;;17.17;10.35;;;20.50;99.90;;;;;;4991646;28;20026;-79
2021/07/01 07:23:17;;;;;;;18.67;11.00;;;21.00;99.90;;;;;;4991278;28;20046;-78
2021/07/01 07:25:43;;;;;;;15.68;11.00;;;21.10;99.90;;;;;;4991719;28;20030;-78
2021/07/01 07:28:10;;;;;;;20.27;9.40;;;20.90;99.90;;;;;;4992122;28;20075;-79
2021/07/01 07:30:36;;;;;;;16.45;8.82;;;20.90;99.90;;;;;;4990564;28;20483;-78
2021/07/01 07:33:08;;;;;;;17.77;9.23;;;20.90;99.90;;;;;;4991158;28;20157;-78
2021/07/01 07:35:35;;;;;;;15.65;8.70;;;20.70;99.90;;;;;;4990535;28;20027;-79
2021/07/01 07:38:03;;;;;;;20.45;10.13;;;20.30;99.90;;;;;;4991963;28;20314;-79
2021/07/01 07:40:29;;;;;;;11.90;8.88;;;20.30;99.90;;;;;;4991572;28;20129;-78
2021/07/01 07:42:55;;;;;;;18.25;9.77;;;20.10;99.90;;;;;;4991595;28;20117;-79
2021/07/01 07:45:21;;;;;;;20.85;10.52;;;20.10;99.90;;;;;;5001666;28;20062;-79
2021/07/01 07:47:47;;;;;;;19.02;10.35;;;20.50;99.90;;;;;;5005783;28;20026;-78
2021/07/01 07:50:14;;;;;;;13.23;8.30;;;20.50;99.90;;;;;;5009929;28;20026;-78
2021/07/01 07:52:54;;;;;;;14.82;9.60;;;20.60;99.90;;;;;;5010278;28;20367;-78
2021/07/01 07:55:22;;;;;;;11.02;8.07;;;20.70;99.90;;;;;;5011477;28;20152;-77
2021/07/01 07:57:55;;;;;;;14.05;7.22;;;21.00;99.90;;;;;;5011477;28;20037;-77
2021/07/01 08:00:21;;;;;;;18.73;8.27;;;21.20;99.90;;;;;;5013861;28;20111;-78
2021/07/01 08:02:54;;;;;;;13.93;7.85;;;21.40;99.90;;;;;;5027930;28;20502;-77
2021/07/01 08:05:28;;;;;;;19.92;9.05;;;21.50;99.90;;;;;;5029891;28;20029;-77
2021/07/01 08:07:55;;;;;;;18.33;8.73;;;21.70;99.90;;;;;;5014792;28;20026;-77
2021/07/01 08:10:28;;;;;;;16.45;9.18;;;21.30;99.90;;;;;;5014739;28;20156;-79
2021/07/01 08:13:00;;;;;;;16.27;8.60;;;21.30;99.90;;;;;;5014315;28;20022;-79
2021/07/01 08:15:27;;;;;;;17.92;9.18;;;21.70;99.90;;;;;;5028955;28;20038;-79
2021/07/01 08:17:53;;;;;;;12.68;7.70;;;22.00;99.90;;;;;;5023110;28;20076;-79
2021/07/01 08:20:20;;;;;;;13.68;7.07;;;22.00;99.90;;;;;;5019961;28;20018;-79
2021/07/01 08:22:48;;;;;;;14.57;7.53;;;22.10;99.90;;;;;;5010751;28;20482;-79
2021/07/01 08:25:15;;;;;;;12.65;7.53;;;22.10;99.90;;;;;;5016483;28;20037;-79
2021/07/01 08:27:42;;;;;;;11.48;6.63;;;22.10;99.90;;;;;;5028818;28;20110;-79
2021/07/01 08:30:09;;;;;;;10.63;6.50;;;22.10;99.90;;;;;;5019795;28;20025;-79
2021/07/01 08:32:37;;;;;;;16.50;6.80;;;22.10;99.90;;;;;;5013826;28;20097;-80
2021/07/01 08:35:03;;;;;;;12.48;6.35;;;22.20;99.90;;;;;;5011041;28;20548;-79
2021/07/01 08:37:30;;;;;;;14.10;7.25;;;22.30;99.90;;;;;;5019411;28;20065;-78
2021/07/01 08:39:59;;;;;;;19.58;7.57;;;22.10;99.90;;;;;;5017507;28;20030;-80
2021/07/01 08:42:33;;;;;;;19.85;8.63;;;21.70;99.90;;;;;;5016956;28;20035;-80
2021/07/01 08:45:13;;;;;;;16.88;8.23;;;21.70;99.90;;;;;;5026855;28;20030;-79
2021/07/01 08:47:41;;;;;;;20.08;7.15;;;21.90;99.90;;;;;;5028205;28;20033;-79
2021/07/01 08:50:09;;;;;;;12.38;7.43;;;22.00;99.90;;;;;;5017721;28;20125;-79
2021/07/01 08:52:46;;;;;;;13.10;6.55;;;22.00;99.90;;;;;;5010014;28;20022;-79
2021/07/01 08:55:17;;;;;;;16.38;8.10;;;21.80;99.90;;;;;;5019416;28;20381;-82
2021/07/01 08:57:49;;;;;;;18.67;7.07;;;22.00;99.90;;;;;;5020470;28;20017;-77
2021/07/01 09:00:16;;;;;;;13.18;5.93;;;22.20;99.90;;;;;;4999238;28;20451;-79
2021/07/01 09:02:45;;;;;;;11.25;6.28;;;22.30;99.90;;;;;;5019138;28;20032;-83
2021/07/01 09:05:15;;;;;;;10.48;7.10;;;22.40;99.90;;;;;;5016415;28;20505;-79
2021/07/01 09:07:47;;;;;;;16.45;6.95;;;22.70;99.90;;;;;;5002417;28;20030;-79
2021/07/01 09:10:14;;;;;;;10.90;6.65;;;23.10;99.90;;;;;;5017847;28;20025;-79
2021/07/01 09:13:10;;;;;;;10.43;6.30;;;23.30;99.90;;;;;;5018114;28;20366;-79
2021/07/01 09:15:36;;;;;;;13.48;6.38;;;22.90;99.90;;;;;;5021342;28;20030;-79
2021/07/01 09:18:03;;;;;;;10.77;6.70;;;22.50;99.90;;;;;;5009212;28;20410;-79
2021/07/01 09:20:37;;;;;;;9.02;5.75;;;22.30;99.90;;;;;;5022285;28;20048;-77
2021/07/01 09:23:05;;;;;;;10.85;5.45;;;22.20;99.90;;;;;;5025465;28;20044;-79
2021/07/01 09:25:31;;;;;;;11.73;7.20;;;22.30;99.90;;;;;;5022439;28;20478;-79
2021/07/01 09:27:57;;;;;;;9.73;5.45;;;22.80;99.90;;;;;;5013115;28;20532;-79
2021/07/01 09:30:26;;;;;;;9.52;5.47;;;23.40;99.90;;;;;;5017521;28;20021;-80
2021/07/01 09:32:59;;;;;;;12.02;5.45;;;24.00;99.90;;;;;;5014138;28;20105;-79
2021/07/01 09:35:27;;;;;;;9.10;5.65;;;24.10;99.90;;;;;;5023946;28;20032;-80
2021/07/01 09:37:54;;;;;;;11.43;5.30;;;24.00;99.90;;;;;;5012843;28;20065;-79
2021/07/01 09:40:22;;;;;;;10.30;5.38;;;23.60;99.90;;;;;;5024503;28;20025;-78
2021/07/01 09:42:53;;;;;;;8.70;5.25;;;23.70;99.90;;;;;;5018069;28;20021;-79
2021/07/01 09:45:22;;;;;;;8.75;5.38;;;23.60;99.90;;;;;;5013653;28;20057;-79
2021/07/01 09:47:56;;;;;;;12.73;6.07;;;23.70;99.90;;;;;;5018743;28;20080;-79
2021/07/01 09:50:26;;;;;;;12.15;6.28;;;23.70;99.90;;;;;;5016480;28;20521;-79
2021/07/01 09:52:56;;;;;;;8.23;5.13;;;23.80;99.90;;;;;;5003050;28;20033;-78
2021/07/01 09:55:27;;;;;;;9.48;5.40;;;23.60;99.90;;;;;;5015625;28;20033;-78
2021/07/01 09:57:57;;;;;;;9.13;5.55;;;23.40;99.90;;;;;;5010791;28;20566;-79
2021/07/01 10:00:28;;;;;;;10.85;5.57;;;23.30;99.90;;;;;;5006627;28;20442;-79
2021/07/01 10:03:08;;;;;;;7.43;4.75;;;23.60;99.90;;;;;;5026022;28;20032;-82
2021/07/01 10:05:35;;;;;;;9.35;5.28;;;24.20;99.90;;;;;;5027035;28;20056;-79
2021/07/01 10:08:01;;;;;;;10.45;4.57;;;24.60;99.90;;;;;;5020976;28;20072;-80
2021/07/01 10:10:26;;;;;;;7.95;4.57;;;24.90;99.90;;;;;;5017848;28;20450;-81
2021/07/01 10:12:57;;;;;;;11.40;4.38;;;25.40;99.90;;;;;;5009000;28;20041;-81
2021/07/01 10:15:33;;;;;;;8.45;4.00;;;25.80;99.90;;;;;;5017188;28;20053;-80
2021/07/01 10:18:10;;;;;;;6.80;4.25;;;26.10;99.90;;;;;;5008227;28;20080;-81
2021/07/01 10:20:44;;;;;;;13.50;5.18;;;26.40;99.90;;;;;;5008193;28;20098;-80
2021/07/01 10:23:20;;;;;;;16.83;5.47;;;26.60;99.90;;;;;;5018363;28;20091;-79
2021/07/01 10:25:51;;;;;;;9.13;4.72;;;26.50;99.90;;;;;;5023632;28;20629;-81
2021/07/01 10:28:22;;;;;;;7.43;4.18;;;26.60;99.90;;;;;;5007563;28;20030;-81
2021/07/01 10:31:03;;;;;;;10.43;4.47;;;26.80;99.90;;;;;;5018970;28;20106;-79
2021/07/01 10:33:34;;;;;;;9.88;4.72;;;26.90;99.90;;;;;;5009089;28;20589;-77
2021/07/01 10:36:02;;;;;;;13.35;5.05;;;26.90;99.90;;;;;;5014784;28;20061;-77
2021/07/01 10:38:40;;;;;;;5.75;4.45;;;26.80;99.90;;;;;;5016596;28;20021;-78
2021/07/01 10:41:06;;;;;;;9.27;4.53;;;26.80;99.90;;;;;;5017036;28;20036;-78
2021/07/01 10:43:41;;;;;;;5.90;4.13;;;27.00;99.90;;;;;;5010142;28;20021;-79
2021/07/01 10:46:07;;;;;;;6.53;4.32;;;27.10;99.90;;;;;;5025638;28;20604;-78
2021/07/01 10:48:33;;;;;;;13.15;4.72;;;27.50;99.90;;;;;;5025706;28;20746;-79
2021/07/01 10:51:13;;;;;;;16.15;5.45;;;27.30;99.90;;;;;;5016442;28;20104;-79
2021/07/01 10:53:43;;;;;;;8.10;4.82;;;27.40;99.90;;;;;;5006252;28;20026;-78
2021/07/01 10:56:21;;;;;;;10.38;5.35;;;26.80;99.90;;;;;;5007449;28;20030;-78
2021/07/01 10:58:58;;;;;;;7.57;4.88;;;26.00;99.90;;;;;;5014635;28;20398;-77
2021/07/01 11:01:31;;;;;;;10.90;5.65;;;25.20;99.90;;;;;;5016835;28;20112;-80
2021/07/01 11:04:10;;;;;;;7.25;4.97;;;24.10;99.90;;;;;;5018805;28;20030;-79
2021/07/01 11:06:55;;;;;;;9.40;5.15;;;24.00;99.90;;;;;;5016459;28;20029;-78
2021/07/01 11:09:20;;;;;;;11.50;4.80;;;24.60;99.90;;;;;;5017798;28;20033;-78
2021/07/01 11:11:46;;;;;;;8.07;5.28;;;25.20;99.90;;;;;;5012735;28;20540;-79
2021/07/01 11:14:14;;;;;;;6.38;4.68;;;26.00;99.90;;;;;;5008242;28;20548;-79
2021/07/01 11:16:42;;;;;;;21.65;6.28;;;26.70;99.90;;;;;;5009562;28;20025;-81
2021/07/01 11:19:18;;;;;;;11.02;5.47;;;26.40;99.90;;;;;;5021802;28;20034;-80
2021/07/01 11:21:52;;;;;;;6.43;4.68;;;25.50;99.90;;;;;;5016763;28;20033;-79
2021/07/01 11:24:26;;;;;;;17.77;5.28;;;25.60;99.90;;;;;;5008199;28;20038;-80
2021/07/01 11:26:52;;;;;;;;;;;25.40;99.90;;;;;;5009271;28;20018;-80
2021/07/01 11:29:35;;;;;;;13.63;4.90;;;25.20;99.90;;;;;;5007797;28;19973;-83
2021/07/01 11:32:00;;;;;;;7.25;4.43;;;24.50;99.90;;;;;;5018128;28;20017;-79
2021/07/01 11:34:40;;;;;;;15.10;5.70;;;24.50;99.90;;;;;;5002556;28;20026;-82
2021/07/01 11:37:05;;;;;;;10.90;4.97;;;24.40;99.90;;;;;;5019918;28;20025;-79
2021/07/01 11:39:33;;;;;;;13.90;4.93;;;24.60;99.90;;;;;;5022282;28;20571;-79
2021/07/01 11:42:01;;;;;;;13.13;4.60;;;25.10;99.90;;;;;;5016392;28;20063;-77
2021/07/01 11:44:28;;;;;;;9.73;4.05;;;25.50;99.90;;;;;;5014830;28;20072;-79
2021/07/01 11:46:54;;;;;;;11.90;4.60;;;26.20;99.90;;;;;;5014919;28;20068;-79
2021/07/01 11:49:21;;;;;;;6.47;4.53;;;26.60;99.90;;;;;;5014920;28;20029;-80
2021/07/01 11:51:46;;;;;;;10.07;4.93;;;26.70;99.90;;;;;;5012791;28;20026;-80
2021/07/01 11:54:12;;;;;;;7.47;4.70;;;26.50;99.90;;;;;;5014915;28;20041;-79
2021/07/01 11:56:58;;;;;;;8.05;4.45;;;26.20;99.90;;;;;;5014950;28;20495;-78
2021/07/01 11:59:26;;;;;;;7.97;4.22;;;25.70;99.90;;;;;;5014967;28;20508;-78
2021/07/01 12:01:52;;;;;;;6.03;3.72;;;25.40;99.90;;;;;;5004556;28;20026;-79
2021/07/01 12:04:23;;;;;;;11.63;4.35;;;25.60;99.90;;;;;;4995116;28;20105;-79
2021/07/01 12:07:24;;;;;;;5.78;3.83;;;26.30;99.90;;;;;;4994739;28;20022;-79
2021/07/01 12:09:51;;;;;;;6.45;3.35;;;27.10;99.90;;;;;;4995186;28;20026;-78
2021/07/01 12:12:30;;;;;;;10.68;4.05;;;27.40;99.90;;;;;;5004867;28;20076;-79
2021/07/01 12:15:02;;;;;;;9.32;3.60;;;27.90;99.90;;;;;;5014641;28;20025;-79
2021/07/01 12:17:49;;;;;;;4.57;3.35;;;27.90;99.90;;;;;;5029568;28;20030;-79
2021/07/01 12:20:29;;;;;;;8.35;3.97;;;27.30;99.90;;;;;;5014535;28;20040;-80
2021/07/01 12:22:54;;;;;;;9.15;4.45;;;27.90;99.90;;;;;;5001871;28;20042;-78
2021/07/01 12:25:26;;;;;;;12.15;4.22;;;27.60;99.90;;;;;;5009960;28;20033;-77
2021/07/01 12:28:13;;;;;;;14.60;3.85;;;27.00;99.90;;;;;;5008449;28;20029;-76
2021/07/01 12:31:04;;;;;;;12.20;3.88;;;26.40;99.90;;;;;;5023502;28;20037;-77
2021/07/01 12:33:57;;;;;;;8.15;3.55;;;26.30;99.90;;;;;;5019702;28;20648;-77
2021/07/01 12:36:25;;;;;;;4.70;3.38;;;26.60;99.90;;;;;;5018029;28;20083;-78
2021/07/01 12:39:10;;;;;;;4.45;3.08;;;26.90;99.90;;;;;;5027845;28;20029;-79
2021/07/01 12:42:17;;;;;;;5.07;3.67;;;26.90;99.90;;;;;;5012561;28;20042;-78